Impacts TAF Board
For situational awareness. Not to be used for flight planning purposes.
IDs:

KBFM - Mobile/Downtown Arpt, AL, US

Issued at 0801 UTC 16 Oct 2018
Updated at 0837 UTC 16 Oct 2018
Potential Impact None Slight Moderate High
Time0820Z 16/09Z 16/10Z 16/11Z 16/12Z 16/13Z 16/14Z 16/15Z 16/16Z 16/17Z 16/18Z 16/19Z 16/20Z 16/21Z>>
Type OBS PRVL PRVL PRVL PRVL PRVL PRVL PRVL PRVL PRVL PRVL PRVL PRVL PRVL
VIS 3 5 5 5 5 5 5 >6 >6 >6 >6 >6 >6 >6
CIG 4 4 4 4 4 4 4 15 15 15 60 60 60 60
Cover OVC OVC OVC OVC OVC OVC OVC BKN BKN BKN BKN BKN BKN BKN
FltCat LIFR LIFR LIFR LIFR LIFR LIFR LIFR MVFR MVFR MVFR VFR VFR VFR VFR
WX BR BR BR BR BR BR BR -- -- -- VCSH VCSH VCSH VCSH
WDir 20 70 70 70 70 70 70 70 70 70 120 120 120 120
WSpd 4 5 5 5 5 5 5 5 5 5 6 6 6 6
WGst -- -- -- -- -- -- -- -- -- -- -- -- -- --
Raw TAF
KBFM 160801Z 1608/1706 07006KT P6SM BKN004
  FM160900 07005KT 5SM BR OVC004
  FM161500 07005KT P6SM BKN015
  FM161800 12006KT P6SM VCSH SCT030 BKN060
  FM170100 02006KT P6SM SCT020 BKN040


Raw METAR
KBFM 160820Z 02004KT 3SM BR OVC004 26/26 A3008 RMK AO2 CIG 002V007 T02610256
KBFM 160753Z AUTO 07006KT 10SM BKN004 26/26 A3007 RMK AO2 SLP183 T02610261
KBFM 160743Z AUTO 08007KT 10SM SCT004 26/26 A3007 RMK AO2 T02610256
KBFM 160653Z AUTO 12004KT 9SM CLR 26/26 A3009 RMK AO2 SLP188 T02610256
KBFM 160553Z AUTO 11005KT 10SM CLR 27/26 A3009 RMK AO2 SLP187 T02670261 10278 20256 403060228 58004

METAR Board
Radar Display
Forecast Discussion
For situational awareness. Not to be used for flight planning purposes.